sensor_id;sensor_type;location;lat;lon;timestamp;pressure;altitude;pressure_sealevel;temperature;humidity
11692;BME280;33659;42.672;23.354;2023-07-02T00:01:19;69383.28;;;22.35;67.34
11692;BME280;33659;42.672;23.354;2023-07-02T00:03:46;69381.63;;;22.33;67.57
11692;BME280;33659;42.672;23.354;2023-07-02T00:06:13;69382.34;;;22.39;67.19
11692;BME280;33659;42.672;23.354;2023-07-02T00:08:40;69313.69;;;22.39;67.51
11692;BME280;33659;42.672;23.354;2023-07-02T00:11:07;69318.97;;;22.39;67.54
11692;BME280;33659;42.672;23.354;2023-07-02T00:13:37;69384.47;;;22.38;67.86
11692;BME280;33659;42.672;23.354;2023-07-02T00:16:06;69317.41;;;22.40;67.79
11692;BME280;33659;42.672;23.354;2023-07-02T00:18:32;69317.41;;;22.40;67.52
11692;BME280;33659;42.672;23.354;2023-07-02T00:21:00;69386.56;;;22.38;67.77
11692;BME280;33659;42.672;23.354;2023-07-02T00:23:28;69385.47;;;22.37;67.82
11692;BME280;33659;42.672;23.354;2023-07-02T00:25:54;69306.59;;;22.32;68.14
11692;BME280;33659;42.672;23.354;2023-07-02T00:28:21;69375.72;;;22.30;68.08
11692;BME280;33659;42.672;23.354;2023-07-02T00:30:48;69375.72;;;22.30;68.44
11692;BME280;33659;42.672;23.354;2023-07-02T00:33:16;69304.25;;;22.25;68.60
11692;BME280;33659;42.672;23.354;2023-07-02T00:35:43;69368.53;;;22.21;68.77
11692;BME280;33659;42.672;23.354;2023-07-02T00:38:10;69363.19;;;22.19;68.81
11692;BME280;33659;42.672;23.354;2023-07-02T00:40:36;69285.81;;;22.10;69.04
11692;BME280;33659;42.672;23.354;2023-07-02T00:43:03;69282.50;;;22.07;69.03
11692;BME280;33659;42.672;23.354;2023-07-02T00:45:30;69344.53;;;21.99;69.30
11692;BME280;33659;42.672;23.354;2023-07-02T00:47:57;69268.34;;;21.94;69.82
11692;BME280;33659;42.672;23.354;2023-07-02T00:50:25;69331.97;;;21.87;69.87
11692;BME280;33659;42.672;23.354;2023-07-02T00:52:53;69255.25;;;21.82;70.06
11692;BME280;33659;42.672;23.354;2023-07-02T00:55:20;69254.16;;;21.81;70.51
11692;BME280;33659;42.672;23.354;2023-07-02T00:57:47;69252.00;;;21.79;70.14
11692;BME280;33659;42.672;23.354;2023-07-02T01:00:14;69296.06;;;21.56;70.49
11692;BME280;33659;42.672;23.354;2023-07-02T01:02:41;69312.31;;;21.69;70.60
11692;BME280;33659;42.672;23.354;2023-07-02T01:05:13;69240.00;;;21.68;70.83
11692;BME280;33659;42.672;23.354;2023-07-02T01:07:41;69233.47;;;21.61;71.42
11692;BME280;33659;42.672;23.354;2023-07-02T01:10:09;69233.47;;;21.61;70.92
11692;BME280;33659;42.672;23.354;2023-07-02T01:12:36;69305.78;;;21.62;71.26
11692;BME280;33659;42.672;23.354;2023-07-02T01:15:05;69233.47;;;21.61;71.24
11692;BME280;33659;42.672;23.354;2023-07-02T01:17:33;69226.91;;;21.55;70.88
11692;BME280;33659;42.672;23.354;2023-07-02T01:20:08;69213.84;;;21.43;70.77
11692;BME280;33659;42.672;23.354;2023-07-02T01:22:35;69295.97;;;21.53;70.42
11692;BME280;33659;42.672;23.354;2023-07-02T01:25:03;69225.38;;;21.56;70.29
11692;BME280;33659;42.672;23.354;2023-07-02T01:27:31;69298.16;;;21.55;69.96
11692;BME280;33659;42.672;23.354;2023-07-02T01:30:00;69298.69;;;21.56;70.04
11692;BME280;33659;42.672;23.354;2023-07-02T01:32:27;69294.97;;;21.55;70.03
11692;BME280;33659;42.672;23.354;2023-07-02T01:34:54;69231.28;;;21.59;69.72
11692;BME280;33659;42.672;23.354;2023-07-02T01:37:22;69299.34;;;21.59;70.26
11692;BME280;33659;42.672;23.354;2023-07-02T01:39:48;69271.53;;;21.33;70.98
11692;BME280;33659;42.672;23.354;2023-07-02T01:42:16;69261.69;;;21.24;71.80
11692;BME280;33659;42.672;23.354;2023-07-02T01:44:44;69256.22;;;21.19;71.64
11692;BME280;33659;42.672;23.354;2023-07-02T01:47:11;69254.50;;;21.15;71.98
11692;BME280;33659;42.672;23.354;2023-07-02T01:49:39;69171.97;;;21.06;71.96
11692;BME280;33659;42.672;23.354;2023-07-02T01:52:06;69238.78;;;21.02;72.34
11692;BME280;33659;42.672;23.354;2023-07-02T01:54:35;69237.69;;;21.01;72.49
11692;BME280;33659;42.672;23.354;2023-07-02T01:57:02;69230.59;;;20.95;73.15
11692;BME280;33659;42.672;23.354;2023-07-02T01:59:29;69221.25;;;20.83;73.61
11692;BME280;33659;42.672;23.354;2023-07-02T02:01:56;69150.63;;;20.84;73.83
11692;BME280;33659;42.672;23.354;2023-07-02T02:04:22;69151.28;;;20.87;73.95
11692;BME280;33659;42.672;23.354;2023-07-02T02:06:49;69152.28;;;20.86;73.96
11692;BME280;33659;42.672;23.354;2023-07-02T02:09:17;69220.78;;;20.86;74.33
11692;BME280;33659;42.672;23.354;2023-07-02T02:11:48;69125.75;;;20.66;74.92
11692;BME280;33659;42.672;23.354;2023-07-02T02:14:15;69181.44;;;20.46;75.79
11692;BME280;33659;42.672;23.354;2023-07-02T02:16:43;69177.63;;;20.43;75.52
11692;BME280;33659;42.672;23.354;2023-07-02T02:19:12;69142.19;;;20.10;77.01
11692;BME280;33659;42.672;23.354;2023-07-02T02:21:40;69036.47;;;19.82;78.57
11692;BME280;33659;42.672;23.354;2023-07-02T02:24:07;69103.59;;;19.76;79.50
11692;BME280;33659;42.672;23.354;2023-07-02T02:26:34;69115.59;;;19.87;80.06
11692;BME280;33659;42.672;23.354;2023-07-02T02:29:02;69133.47;;;20.01;79.52
11692;BME280;33659;42.672;23.354;2023-07-02T02:31:29;69152.09;;;20.21;79.14
11692;BME280;33659;42.672;23.354;2023-07-02T02:33:56;69095.16;;;20.35;78.29
11692;BME280;33659;42.672;23.354;2023-07-02T02:36:23;69174.44;;;20.42;77.24
11692;BME280;33659;42.672;23.354;2023-07-02T02:38:49;69091.38;;;20.31;77.13
11692;BME280;33659;42.672;23.354;2023-07-02T02:41:16;69139.00;;;20.09;76.19
11692;BME280;33659;42.672;23.354;2023-07-02T02:43:43;69130.22;;;19.98;76.40
11692;BME280;33659;42.672;23.354;2023-07-02T02:46:11;69131.91;;;20.02;76.96
11692;BME280;33659;42.672;23.354;2023-07-02T02:48:38;69140.00;;;20.08;74.17
11692;BME280;33659;42.672;23.354;2023-07-02T02:51:05;69139.56;;;20.10;75.62
11692;BME280;33659;42.672;23.354;2023-07-02T02:53:32;69161.25;;;20.27;76.12
11692;BME280;33659;42.672;23.354;2023-07-02T02:55:59;69159.09;;;20.25;75.52
11692;BME280;33659;42.672;23.354;2023-07-02T02:58:26;69142.28;;;20.12;76.59
11692;BME280;33659;42.672;23.354;2023-07-02T03:00:53;69147.19;;;20.17;77.33
11692;BME280;33659;42.672;23.354;2023-07-02T03:03:21;69152.63;;;20.22;76.79
11692;BME280;33659;42.672;23.354;2023-07-02T03:05:49;69153.81;;;20.25;77.30
11692;BME280;33659;42.672;23.354;2023-07-02T03:08:16;69165.16;;;20.34;75.49
11692;BME280;33659;42.672;23.354;2023-07-02T03:10:44;69166.81;;;20.35;75.43
11692;BME280;33659;42.672;23.354;2023-07-02T03:13:10;69175.00;;;20.43;75.99
11692;BME280;33659;42.672;23.354;2023-07-02T03:15:37;69184.19;;;20.49;75.99
11692;BME280;33659;42.672;23.354;2023-07-02T03:18:04;69191.91;;;20.59;75.69
11692;BME280;33659;42.672;23.354;2023-07-02T03:20:32;69203.91;;;20.70;74.88
11692;BME280;33659;42.672;23.354;2023-07-02T03:22:59;69143.03;;;20.77;75.05
11692;BME280;33659;42.672;23.354;2023-07-02T03:25:26;69220.69;;;20.83;74.57
11692;BME280;33659;42.672;23.354;2023-07-02T03:27:53;69142.38;;;20.89;73.95
11692;BME280;33659;42.672;23.354;2023-07-02T03:32:46;69161.53;;;20.94;73.32
11692;BME280;33659;42.672;23.354;2023-07-02T03:35:13;69162.63;;;20.95;73.29
11692;BME280;33659;42.672;23.354;2023-07-02T03:37:41;69164.25;;;20.97;72.92
11692;BME280;33659;42.672;23.354;2023-07-02T03:40:09;69235.50;;;20.99;72.62
11692;BME280;33659;42.672;23.354;2023-07-02T03:42:36;69238.25;;;21.02;73.00
11692;BME280;33659;42.672;23.354;2023-07-02T03:45:03;69241.97;;;21.03;73.73
11692;BME280;33659;42.672;23.354;2023-07-02T03:47:30;69237.06;;;20.98;73.18
11692;BME280;33659;42.672;23.354;2023-07-02T03:49:56;69237.06;;;20.98;72.68
11692;BME280;33659;42.672;23.354;2023-07-02T03:52:23;69236.06;;;21.00;73.08
11692;BME280;33659;42.672;23.354;2023-07-02T03:54:51;69239.31;;;21.03;72.90
11692;BME280;33659;42.672;23.354;2023-07-02T03:57:18;69221.31;;;20.86;73.36
11692;BME280;33659;42.672;23.354;2023-07-02T03:59:45;69248.41;;;21.06;73.10
11692;BME280;33659;42.672;23.354;2023-07-02T04:02:12;69163.78;;;20.99;73.01
11692;BME280;33659;42.672;23.354;2023-07-02T04:04:39;69186.69;;;21.20;72.40
11692;BME280;33659;42.672;23.354;2023-07-02T04:07:06;69193.22;;;21.26;72.47
11692;BME280;33659;42.672;23.354;2023-07-02T04:09:32;69191.56;;;21.25;72.51
11692;BME280;33659;42.672;23.354;2023-07-02T04:12:01;69193.13;;;21.24;72.80
11692;BME280;33659;42.672;23.354;2023-07-02T04:14:27;69270.22;;;21.27;72.95
11692;BME280;33659;42.672;23.354;2023-07-02T04:16:54;69265.50;;;21.27;73.08
11692;BME280;33659;42.672;23.354;2023-07-02T04:19:21;69271.53;;;21.33;73.58
11692;BME280;33659;42.672;23.354;2023-07-02T04:21:48;69274.72;;;21.33;74.01
11692;BME280;33659;42.672;23.354;2023-07-02T04:24:14;69269.31;;;21.31;74.50
11692;BME280;33659;42.672;23.354;2023-07-02T04:26:41;69268.25;;;21.30;75.07
11692;BME280;33659;42.672;23.354;2023-07-02T04:29:09;69258.41;;;21.21;74.80
11692;BME280;33659;42.672;23.354;2023-07-02T04:31:36;69257.78;;;21.18;75.14
11692;BME280;33659;42.672;23.354;2023-07-02T04:34:03;69252.78;;;21.10;75.38
11692;BME280;33659;42.672;23.354;2023-07-02T04:36:31;69169.78;;;21.04;75.25
11692;BME280;33659;42.672;23.354;2023-07-02T04:38:58;69174.06;;;21.06;75.84
11692;BME280;33659;42.672;23.354;2023-07-02T04:41:25;69175.78;;;21.10;75.49
11692;BME280;33659;42.672;23.354;2023-07-02T04:43:52;69242.03;;;21.05;75.27
11692;BME280;33659;42.672;23.354;2023-07-02T04:46:20;69245.88;;;21.09;74.87
11692;BME280;33659;42.672;23.354;2023-07-02T04:48:47;69254.59;;;21.17;74.64
11692;BME280;33659;42.672;23.354;2023-07-02T04:51:14;69261.06;;;21.21;74.50
11692;BME280;33659;42.672;23.354;2023-07-02T04:53:41;69182.25;;;21.14;74.55
11692;BME280;33659;42.672;23.354;2023-07-02T04:56:07;69243.69;;;21.07;74.75
11692;BME280;33659;42.672;23.354;2023-07-02T04:58:34;69242.03;;;21.05;75.05
11692;BME280;33659;42.672;23.354;2023-07-02T05:01:01;69246.34;;;21.07;75.12
11692;BME280;33659;42.672;23.354;2023-07-02T05:03:29;69249.06;;;21.09;75.18
11692;BME280;33659;42.672;23.354;2023-07-02T05:05:56;69245.94;;;21.12;75.47
11692;BME280;33659;42.672;23.354;2023-07-02T05:08:23;69255.59;;;21.16;75.47
11692;BME280;33659;42.672;23.354;2023-07-02T05:10:49;69254.03;;;21.17;74.96
11692;BME280;33659;42.672;23.354;2023-07-02T05:13:16;69256.13;;;21.16;74.92
11692;BME280;33659;42.672;23.354;2023-07-02T05:15:43;69253.41;;;21.14;75.21
11692;BME280;33659;42.672;23.354;2023-07-02T05:18:10;69252.88;;;21.13;75.06
11692;BME280;33659;42.672;23.354;2023-07-02T05:20:38;69252.97;;;21.16;75.46
11692;BME280;33659;42.672;23.354;2023-07-02T05:23:04;69183.41;;;21.17;75.44
11692;BME280;33659;42.672;23.354;2023-07-02T05:25:31;69255.22;;;21.20;75.42
11692;BME280;33659;42.672;23.354;2023-07-02T05:27:59;69189.84;;;21.21;74.68
11692;BME280;33659;42.672;23.354;2023-07-02T05:30:25;69255.69;;;21.18;74.99
11692;BME280;33659;42.672;23.354;2023-07-02T05:32:52;69254.03;;;21.17;75.54
11692;BME280;33659;42.672;23.354;2023-07-02T05:35:19;69253.97;;;21.14;74.94
11692;BME280;33659;42.672;23.354;2023-07-02T05:37:47;69243.16;;;21.06;75.62
11692;BME280;33659;42.672;23.354;2023-07-02T05:40:14;69171.34;;;21.03;74.71
11692;BME280;33659;42.672;23.354;2023-07-02T05:42:40;69233.44;;;21.00;75.09
11692;BME280;33659;42.672;23.354;2023-07-02T05:45:09;69235.50;;;20.99;75.07
11692;BME280;33659;42.672;23.354;2023-07-02T05:47:36;69232.16;;;20.94;75.32
11692;BME280;33659;42.672;23.354;2023-07-02T05:50:03;69231.16;;;20.95;75.18
11692;BME280;33659;42.672;23.354;2023-07-02T05:52:30;69243.16;;;21.06;74.62
11692;BME280;33659;42.672;23.354;2023-07-02T05:54:58;69255.13;;;21.18;74.30
11692;BME280;33659;42.672;23.354;2023-07-02T05:57:25;69267.69;;;21.29;73.62
11692;BME280;33659;42.672;23.354;2023-07-02T05:59:51;69288.34;;;21.46;72.82
11692;BME280;33659;42.672;23.354;2023-07-02T06:02:18;69228.66;;;21.59;71.78
11692;BME280;33659;42.672;23.354;2023-07-02T06:04:45;69244.38;;;21.72;70.28
11692;BME280;33659;42.672;23.354;2023-07-02T06:07:12;69252.06;;;21.81;69.80
11692;BME280;33659;42.672;23.354;2023-07-02T06:09:38;69315.69;;;21.74;69.01
11692;BME280;33659;42.672;23.354;2023-07-02T06:12:07;69273.88;;;22.02;68.63
11692;BME280;33659;42.672;23.354;2023-07-02T06:14:34;69359.91;;;22.15;68.08
11692;BME280;33659;42.672;23.354;2023-07-02T06:17:01;69301.06;;;22.25;67.73
11692;BME280;33659;42.672;23.354;2023-07-02T06:19:31;69299.97;;;22.24;67.00
11692;BME280;33659;42.672;23.354;2023-07-02T06:21:57;69366.28;;;22.16;66.86
11692;BME280;33659;42.672;23.354;2023-07-02T06:24:24;69356.63;;;22.12;67.15
11692;BME280;33659;42.672;23.354;2023-07-02T06:26:51;69353.38;;;22.09;67.89
11692;BME280;33659;42.672;23.354;2023-07-02T06:29:19;69288.69;;;22.18;67.76
11692;BME280;33659;42.672;23.354;2023-07-02T06:31:46;69302.16;;;22.26;67.77
11692;BME280;33659;42.672;23.354;2023-07-02T06:34:12;69374.00;;;22.26;67.69
11692;BME280;33659;42.672;23.354;2023-07-02T06:36:39;69382.19;;;22.34;67.57
11692;BME280;33659;42.672;23.354;2023-07-02T06:39:06;69384.38;;;22.36;67.20
11692;BME280;33659;42.672;23.354;2023-07-02T06:41:34;69299.97;;;22.24;67.61
11692;BME280;33659;42.672;23.354;2023-07-02T06:44:01;69352.25;;;22.08;67.96
11692;BME280;33659;42.672;23.354;2023-07-02T06:46:29;69335.25;;;21.90;68.56
11692;BME280;33659;42.672;23.354;2023-07-02T06:48:56;69274.34;;;22.00;68.40
11692;BME280;33659;42.672;23.354;2023-07-02T06:51:23;69334.69;;;21.89;68.88
11692;BME280;33659;42.672;23.354;2023-07-02T06:53:52;69268.88;;;21.95;68.33
11692;BME280;33659;42.672;23.354;2023-07-02T06:56:19;69337.50;;;21.95;68.79
11692;BME280;33659;42.672;23.354;2023-07-02T06:58:45;69279.31;;;22.07;68.84
11692;BME280;33659;42.672;23.354;2023-07-02T07:01:12;69356.09;;;22.12;68.95
11692;BME280;33659;42.672;23.354;2023-07-02T07:03:40;69370.28;;;22.25;68.58
11692;BME280;33659;42.672;23.354;2023-07-02T07:06:07;69375.19;;;22.30;67.95
11692;BME280;33659;42.672;23.354;2023-07-02T07:08:37;69307.78;;;22.36;67.89
11692;BME280;33659;42.672;23.354;2023-07-02T07:11:04;69313.69;;;22.39;67.74
11692;BME280;33659;42.672;23.354;2023-07-02T07:13:30;69388.19;;;22.39;67.82
11692;BME280;33659;42.672;23.354;2023-07-02T07:15:57;69315.78;;;22.38;68.23
11692;BME280;33659;42.672;23.354;2023-07-02T07:18:24;69323.50;;;22.48;67.95
11692;BME280;33659;42.672;23.354;2023-07-02T07:20:52;69401.38;;;22.54;67.40
11692;BME280;33659;42.672;23.354;2023-07-02T07:23:19;69329.94;;;22.52;67.42
11692;BME280;33659;42.672;23.354;2023-07-02T07:25:46;69383.28;;;22.35;66.34
11692;BME280;33659;42.672;23.354;2023-07-02T07:28:12;69287.50;;;22.14;67.27
11692;BME280;33659;42.672;23.354;2023-07-02T07:30:41;69268.44;;;21.97;67.43
11692;BME280;33659;42.672;23.354;2023-07-02T07:33:08;69331.50;;;21.89;68.89
11692;BME280;33659;42.672;23.354;2023-07-02T07:35:35;69332.63;;;21.90;69.36
11692;BME280;33659;42.672;23.354;2023-07-02T07:38:03;69273.25;;;21.99;68.92
11692;BME280;33659;42.672;23.354;2023-07-02T07:40:29;69357.19;;;22.13;68.51
11692;BME280;33659;42.672;23.354;2023-07-02T07:42:56;69299.50;;;22.26;68.29
11692;BME280;33659;42.672;23.354;2023-07-02T07:45:23;69359.34;;;22.15;67.50
11692;BME280;33659;42.672;23.354;2023-07-02T07:47:50;69336.34;;;21.91;68.71
11692;BME280;33659;42.672;23.354;2023-07-02T07:50:17;69327.59;;;21.83;69.67
11692;BME280;33659;42.672;23.354;2023-07-02T07:52:43;69254.81;;;21.84;69.67
11692;BME280;33659;42.672;23.354;2023-07-02T07:55:12;69326.06;;;21.84;69.29
11692;BME280;33659;42.672;23.354;2023-07-02T07:57:39;69322.16;;;21.78;69.41
11692;BME280;33659;42.672;23.354;2023-07-02T08:00:06;69316.69;;;21.73;71.17
11692;BME280;33659;42.672;23.354;2023-07-02T08:02:34;69323.78;;;21.79;71.49
11692;BME280;33659;42.672;23.354;2023-07-02T08:05:01;69330.97;;;21.88;71.63
11692;BME280;33659;42.672;23.354;2023-07-02T08:07:30;69269.41;;;21.95;71.26
11692;BME280;33659;42.672;23.354;2023-07-02T08:09:58;69277.69;;;22.05;70.83
11692;BME280;33659;42.672;23.354;2023-07-02T08:12:26;69365.81;;;22.19;70.39
11692;BME280;33659;42.672;23.354;2023-07-02T08:14:54;69299.97;;;22.24;70.27
11692;BME280;33659;42.672;23.354;2023-07-02T08:17:21;69291.22;;;22.30;69.95
11692;BME280;33659;42.672;23.354;2023-07-02T08:19:48;69367.56;;;22.23;69.11
11692;BME280;33659;42.672;23.354;2023-07-02T08:22:15;69354.34;;;22.08;68.94
11692;BME280;33659;42.672;23.354;2023-07-02T08:24:41;69351.16;;;22.07;69.43
11692;BME280;33659;42.672;23.354;2023-07-02T08:27:08;69290.16;;;22.14;68.65
11692;BME280;33659;42.672;23.354;2023-07-02T08:29:37;69375.72;;;22.30;67.87
11692;BME280;33659;42.672;23.354;2023-07-02T08:32:04;69385.00;;;22.39;67.48
11692;BME280;33659;42.672;23.354;2023-07-02T08:34:31;69327.84;;;22.52;66.38
11692;BME280;33659;42.672;23.354;2023-07-02T08:36:57;69336.13;;;22.62;66.24
11692;BME280;33659;42.672;23.354;2023-07-02T08:39:24;69427.03;;;22.78;65.93
11692;BME280;33659;42.672;23.354;2023-07-02T08:41:51;69453.06;;;22.97;65.57
11692;BME280;33659;42.672;23.354;2023-07-02T08:44:20;69476.09;;;23.21;64.96
11692;BME280;33659;42.672;23.354;2023-07-02T08:46:49;69421.03;;;23.37;63.69
11692;BME280;33659;42.672;23.354;2023-07-02T08:49:18;69503.94;;;23.47;63.17
11692;BME280;33659;42.672;23.354;2023-07-02T08:51:46;69446.78;;;23.63;62.74
11692;BME280;33659;42.672;23.354;2023-07-02T08:54:14;69453.78;;;23.67;61.88
11692;BME280;33659;42.672;23.354;2023-07-02T08:56:41;69465.31;;;23.81;61.89
11692;BME280;33659;42.672;23.354;2023-07-02T08:59:08;69458.72;;;23.72;61.38
11692;BME280;33659;42.672;23.354;2023-07-02T09:01:44;69452.16;;;23.66;62.30
11692;BME280;33659;42.672;23.354;2023-07-02T09:04:17;69446.13;;;23.60;62.29
11692;BME280;33659;42.672;23.354;2023-07-02T09:06:43;69518.25;;;23.63;61.82
11692;BME280;33659;42.672;23.354;2023-07-02T09:09:10;69455.97;;;23.69;61.84
11692;BME280;33659;42.672;23.354;2023-07-02T09:11:46;69457.38;;;23.81;61.52
11692;BME280;33659;42.672;23.354;2023-07-02T09:14:23;69474.69;;;23.92;60.93
11692;BME280;33659;42.672;23.354;2023-07-02T09:17:01;69480.53;;;23.92;61.54
11692;BME280;33659;42.672;23.354;2023-07-02T09:19:29;69484.50;;;24.01;61.02
11692;BME280;33659;42.672;23.354;2023-07-02T09:21:57;69490.88;;;24.02;59.32
11692;BME280;33659;42.672;23.354;2023-07-02T09:24:26;69475.63;;;23.88;59.10
11692;BME280;33659;42.672;23.354;2023-07-02T09:26:53;69451.38;;;23.75;59.16
11692;BME280;33659;42.672;23.354;2023-07-02T09:29:22;69439.94;;;23.64;60.29
11692;BME280;33659;42.672;23.354;2023-07-02T09:31:49;69451.06;;;23.65;61.19
11692;BME280;33659;42.672;23.354;2023-07-02T09:34:16;69458.63;;;23.69;61.50
11692;BME280;33659;42.672;23.354;2023-07-02T09:36:44;69452.94;;;23.74;61.36
11692;BME280;33659;42.672;23.354;2023-07-02T09:39:13;69529.72;;;23.74;61.06
11692;BME280;33659;42.672;23.354;2023-07-02T09:41:41;69480.53;;;23.92;61.17
11692;BME280;33659;42.672;23.354;2023-07-02T09:44:08;69496.34;;;24.07;60.50
11692;BME280;33659;42.672;23.354;2023-07-02T09:46:37;69513.28;;;24.23;61.34
11692;BME280;33659;42.672;23.354;2023-07-02T09:49:11;69522.00;;;24.31;61.68
11692;BME280;33659;42.672;23.354;2023-07-02T09:51:40;69605.66;;;24.45;60.54
11692;BME280;33659;42.672;23.354;2023-07-02T09:54:10;69530.22;;;24.56;59.36
11692;BME280;33659;42.672;23.354;2023-07-02T09:56:37;69543.78;;;24.66;58.63
11692;BME280;33659;42.672;23.354;2023-07-02T09:59:04;69645.94;;;24.77;57.94
11692;BME280;33659;42.672;23.354;2023-07-02T10:01:30;69652.03;;;24.85;58.52
11692;BME280;33659;42.672;23.354;2023-07-02T10:03:57;69569.59;;;24.78;58.61
11692;BME280;33659;42.672;23.354;2023-07-02T10:06:24;69569.03;;;24.77;58.52
11692;BME280;33659;42.672;23.354;2023-07-02T10:08:54;69643.84;;;24.78;57.82
11692;BME280;33659;42.672;23.354;2023-07-02T10:11:33;69543.78;;;24.49;57.80
11692;BME280;33659;42.672;23.354;2023-07-02T10:14:00;69602.84;;;24.40;59.16
11692;BME280;33659;42.672;23.354;2023-07-02T10:16:27;69601.28;;;24.41;59.98
11692;BME280;33659;42.672;23.354;2023-07-02T10:19:08;69546.59;;;24.54;59.10
11692;BME280;33659;42.672;23.354;2023-07-02T10:21:34;69537.84;;;24.46;58.88
11692;BME280;33659;42.672;23.354;2023-07-02T10:24:09;69534.03;;;24.42;58.40
11692;BME280;33659;42.672;23.354;2023-07-02T10:26:37;69531.22;;;24.37;58.55
11692;BME280;33659;42.672;23.354;2023-07-02T10:29:06;69531.28;;;24.40;58.53
11692;BME280;33659;42.672;23.354;2023-07-02T10:31:33;69555.78;;;24.60;58.86
11692;BME280;33659;42.672;23.354;2023-07-02T10:34:00;69640.03;;;24.74;58.44
11692;BME280;33659;42.672;23.354;2023-07-02T10:36:27;69573.66;;;24.89;58.71
11692;BME280;33659;42.672;23.354;2023-07-02T10:38:53;69595.63;;;24.97;58.10
11692;BME280;33659;42.672;23.354;2023-07-02T10:41:29;69677.22;;;25.09;58.50
11692;BME280;33659;42.672;23.354;2023-07-02T10:44:06;69571.47;;;24.87;57.25
11692;BME280;33659;42.672;23.354;2023-07-02T10:46:33;69579.97;;;24.88;56.98
11692;BME280;33659;42.672;23.354;2023-07-02T10:49:00;69583.16;;;24.88;57.24
11692;BME280;33659;42.672;23.354;2023-07-02T10:51:27;69577.31;;;24.88;56.66
11692;BME280;33659;42.672;23.354;2023-07-02T10:53:58;69584.88;;;24.92;56.17
11692;BME280;33659;42.672;23.354;2023-07-02T10:56:25;69596.28;;;25.00;57.29
11692;BME280;33659;42.672;23.354;2023-07-02T10:58:53;69602.00;;;25.13;57.06
11692;BME280;33659;42.672;23.354;2023-07-02T11:01:28;69627.41;;;25.29;56.22
11692;BME280;33659;42.672;23.354;2023-07-02T11:03:57;69641.59;;;25.43;56.18
11692;BME280;33659;42.672;23.354;2023-07-02T11:06:24;69663.44;;;25.63;55.13
11692;BME280;33659;42.672;23.354;2023-07-02T11:08:52;69669.25;;;25.78;54.35
11692;BME280;33659;42.672;23.354;2023-07-02T11:11:20;69694.06;;;25.91;53.53
11692;BME280;33659;42.672;23.354;2023-07-02T11:13:48;69705.56;;;26.02;53.64
11692;BME280;33659;42.672;23.354;2023-07-02T11:16:24;69698.75;;;26.06;52.23
11692;BME280;33659;42.672;23.354;2023-07-02T11:18:54;69673.75;;;25.87;52.19
11692;BME280;33659;42.672;23.354;2023-07-02T11:21:21;69689.16;;;25.87;53.35
11692;BME280;33659;42.672;23.354;2023-07-02T11:23:48;69694.78;;;25.97;53.57
11692;BME280;33659;42.672;23.354;2023-07-02T11:26:15;69721.41;;;26.17;52.89
11692;BME280;33659;42.672;23.354;2023-07-02T11:28:49;69737.44;;;26.39;51.66
11692;BME280;33659;42.672;23.354;2023-07-02T11:31:26;69762.69;;;26.65;50.60
11692;BME280;33659;42.672;23.354;2023-07-02T11:33:54;69779.16;;;26.83;49.75
11692;BME280;33659;42.672;23.354;2023-07-02T11:36:22;69785.66;;;26.87;48.35
11692;BME280;33659;42.672;23.354;2023-07-02T11:38:50;69775.97;;;26.65;50.58
11692;BME280;33659;42.672;23.354;2023-07-02T11:41:18;69778.31;;;26.01;53.48
11692;BME280;33659;42.672;23.354;2023-07-02T11:43:45;69730.69;;;25.56;55.13
11692;BME280;33659;42.672;23.354;2023-07-02T11:46:13;69611.03;;;25.14;56.59
11692;BME280;33659;42.672;23.354;2023-07-02T11:48:40;69597.84;;;24.99;57.31
11692;BME280;33659;42.672;23.354;2023-07-02T11:51:08;69554.25;;;24.61;57.70
11692;BME280;33659;42.672;23.354;2023-07-02T11:53:35;69541.91;;;24.57;57.73
11692;BME280;33659;42.672;23.354;2023-07-02T11:56:01;69608.41;;;24.47;57.80
11692;BME280;33659;42.672;23.354;2023-07-02T11:58:28;69549.88;;;24.57;58.76
11692;BME280;33659;42.672;23.354;2023-07-02T12:00:55;69542.44;;;24.57;58.87
11692;BME280;33659;42.672;23.354;2023-07-02T12:03:21;69592.38;;;24.94;57.29
11692;BME280;33659;42.672;23.354;2023-07-02T12:05:48;69620.84;;;25.23;55.98
11692;BME280;33659;42.672;23.354;2023-07-02T12:08:16;69704.06;;;25.36;54.21
11692;BME280;33659;42.672;23.354;2023-07-02T12:10:43;69638.81;;;25.37;51.92
11692;BME280;33659;42.672;23.354;2023-07-02T12:13:10;69628.59;;;25.33;51.51
11692;BME280;33659;42.672;23.354;2023-07-02T12:15:37;69591.91;;;25.14;51.94
11692;BME280;33659;42.672;23.354;2023-07-02T12:18:04;69599.00;;;25.03;51.68
11692;BME280;33659;42.672;23.354;2023-07-02T12:20:31;69582.69;;;24.90;52.38
11692;BME280;33659;42.672;23.354;2023-07-02T12:22:57;69569.50;;;24.75;53.59
11692;BME280;33659;42.672;23.354;2023-07-02T12:25:25;69558.59;;;24.65;54.03
11692;BME280;33659;42.672;23.354;2023-07-02T12:27:52;69539.56;;;24.50;55.17
11692;BME280;33659;42.672;23.354;2023-07-02T12:30:19;69599.59;;;24.37;55.84
11692;BME280;33659;42.672;23.354;2023-07-02T12:32:46;69500.09;;;24.25;57.79
11692;BME280;33659;42.672;23.354;2023-07-02T12:35:14;69503.97;;;24.14;58.24
11692;BME280;33659;42.672;23.354;2023-07-02T12:37:44;69490.88;;;24.02;60.39
11692;BME280;33659;42.672;23.354;2023-07-02T12:40:11;69559.69;;;23.99;61.47
11692;BME280;33659;42.672;23.354;2023-07-02T12:42:40;69483.78;;;23.95;62.40
11692;BME280;33659;42.672;23.354;2023-07-02T12:45:08;69484.44;;;23.98;64.58
11692;BME280;33659;42.672;23.354;2023-07-02T12:47:36;69496.34;;;24.07;64.98
11692;BME280;33659;42.672;23.354;2023-07-02T12:50:03;69485.75;;;24.07;64.61
11692;BME280;33659;42.672;23.354;2023-07-02T12:52:30;69515.44;;;24.25;65.34
11692;BME280;33659;42.672;23.354;2023-07-02T12:54:57;69530.22;;;24.39;67.69